Aviation Digital Data Service (ADDS)

Output produced by METARs form (1404 UTC 24 August 2019)
found at http://www.aviationweather.gov/metar/data/
 
METAR text: MDSD 241400Z 12006KT 9999 SCT020 30/25 Q1017
Conditions at: MDSD (CAUCEDO/DE LAS , DO) observed 1400 UTC 24 August 2019
Temperature: 30.0°C (86°F)
Dewpoint: 25.0°C (77°F) [RH = 75%]
Pressure (altimeter): 30.03 inches Hg (1017.0 mb)
Winds: from the ESE (120 degrees) at 7 MPH (6 knots; 3.1 m/s)
Visibility: 6 or more miles (10+ km)
Ceiling: at least 12,000 feet AGL
Clouds: scattered clouds at 2000 feet AGL
Weather: no significant weather observed at this time

METAR text: MDSD 241300Z 06005KT 9999 SCT018 28/25 Q1017
Conditions at: MDSD (CAUCEDO/DE LAS , DO) observed 1300 UTC 24 August 2019
Temperature: 28.0°C (82°F)
Dewpoint: 25.0°C (77°F) [RH = 84%]
Pressure (altimeter): 30.03 inches Hg (1017.0 mb)
Winds: from the ENE (60 degrees) at 6 MPH (5 knots; 2.6 m/s)
Visibility: 6 or more miles (10+ km)
Ceiling: at least 12,000 feet AGL
Clouds: scattered clouds at 1800 feet AGL
Weather: no significant weather observed at this time

METAR text: MDSD 241200Z 03005KT 9999 FEW016CB FEW018 26/24 Q1016 CB/SW
Conditions at: MDSD (CAUCEDO/DE LAS , DO) observed 1200 UTC 24 August 2019
Temperature: 26.0°C (79°F)
Dewpoint: 24.0°C (75°F) [RH = 89%]
Pressure (altimeter): 30.00 inches Hg (1016.0 mb)
Winds: from the NNE (30 degrees) at 6 MPH (5 knots; 2.6 m/s)
Visibility: 6 or more miles (10+ km)
Ceiling: at least 12,000 feet AGL
Clouds: few clouds at 1600 feet AGL
few clouds at 1800 feet AGL
Weather: no significant weather observed at this time

METAR text: MDSD 241100Z 03004KT 9999 FEW016CB FEW018 24/23 Q1016
Conditions at: MDSD (CAUCEDO/DE LAS , DO) observed 1100 UTC 24 August 2019
Temperature: 24.0°C (75°F)
Dewpoint: 23.0°C (73°F) [RH = 94%]
Pressure (altimeter): 30.00 inches Hg (1016.0 mb)
Winds: from the NNE (30 degrees) at 5 MPH (4 knots; 2.1 m/s)
Visibility: 6 or more miles (10+ km)
Ceiling: at least 12,000 feet AGL
Clouds: few clouds at 1600 feet AGL
few clouds at 1800 feet AGL
Weather: no significant weather observed at this time

METAR text: MDSD 241000Z 36004KT 9999 FEW016CB FEW018 24/23 Q1015 CB/SW
Conditions at: MDSD (CAUCEDO/DE LAS , DO) observed 1000 UTC 24 August 2019
Temperature: 24.0°C (75°F)
Dewpoint: 23.0°C (73°F) [RH = 94%]
Pressure (altimeter): 29.97 inches Hg (1015.0 mb)
Winds: from the N (360 degrees) at 5 MPH (4 knots; 2.1 m/s)
Visibility: 6 or more miles (10+ km)
Ceiling: at least 12,000 feet AGL
Clouds: few clouds at 1600 feet AGL
few clouds at 1800 feet AGL
Weather: no significant weather observed at this time

METAR text: MDSD 240900Z 01004KT 9999 FEW016CB FEW018 24/23 Q1015 CB/E
Conditions at: MDSD (CAUCEDO/DE LAS , DO) observed 0900 UTC 24 August 2019
Temperature: 24.0°C (75°F)
Dewpoint: 23.0°C (73°F) [RH = 94%]
Pressure (altimeter): 29.97 inches Hg (1015.0 mb)
Winds: from the N (10 degrees) at 5 MPH (4 knots; 2.1 m/s)
Visibility: 6 or more miles (10+ km)
Ceiling: at least 12,000 feet AGL
Clouds: few clouds at 1600 feet AGL
few clouds at 1800 feet AGL
Weather: no significant weather observed at this time

METAR text: MDSD 240800Z 04004KT 9999 FEW016CB SCT018 24/23 Q1015 CB/SW
Conditions at: MDSD (CAUCEDO/DE LAS , DO) observed 0800 UTC 24 August 2019
Temperature: 24.0°C (75°F)
Dewpoint: 23.0°C (73°F) [RH = 94%]
Pressure (altimeter): 29.97 inches Hg (1015.0 mb)
Winds: from the NE (40 degrees) at 5 MPH (4 knots; 2.1 m/s)
Visibility: 6 or more miles (10+ km)
Ceiling: at least 12,000 feet AGL
Clouds: few clouds at 1600 feet AGL
scattered clouds at 1800 feet AGL
Weather: no significant weather observed at this time

METAR text: MDSD 240700Z VRB02KT 9999 FEW016CB SCT018 25/24 Q1015 CB/NE
Conditions at: MDSD (CAUCEDO/DE LAS , DO) observed 0700 UTC 24 August 2019
Temperature: 25.0°C (77°F)
Dewpoint: 24.0°C (75°F) [RH = 94%]
Pressure (altimeter): 29.97 inches Hg (1015.0 mb)
Winds: variable direction winds at 2 MPH (2 knots; 1.0 m/s)
Visibility: 6 or more miles (10+ km)
Ceiling: at least 12,000 feet AGL
Clouds: few clouds at 1600 feet AGL
scattered clouds at 1800 feet AGL
Weather: no significant weather observed at this time

METAR text: MDSD 240600Z 04006KT 9999 FEW016CB SCT018 25/24 Q1015 CB/N
Conditions at: MDSD (CAUCEDO/DE LAS , DO) observed 0600 UTC 24 August 2019
Temperature: 25.0°C (77°F)
Dewpoint: 24.0°C (75°F) [RH = 94%]
Pressure (altimeter): 29.97 inches Hg (1015.0 mb)
Winds: from the NE (40 degrees) at 7 MPH (6 knots; 3.1 m/s)
Visibility: 6 or more miles (10+ km)
Ceiling: at least 12,000 feet AGL
Clouds: few clouds at 1600 feet AGL
scattered clouds at 1800 feet AGL
Weather: no significant weather observed at this time

METAR text: MDSD 240500Z 05004KT 9999 FEW016CB SCT018 25/24 Q1016 RESH CB/N
Conditions at: MDSD (CAUCEDO/DE LAS , DO) observed 0500 UTC 24 August 2019
Temperature: 25.0°C (77°F)
Dewpoint: 24.0°C (75°F) [RH = 94%]
Pressure (altimeter): 30.00 inches Hg (1016.0 mb)
Winds: from the NE (50 degrees) at 5 MPH (4 knots; 2.1 m/s)
Visibility: 6 or more miles (10+ km)
Ceiling: at least 12,000 feet AGL
Clouds: few clouds at 1600 feet AGL
scattered clouds at 1800 feet AGL
Weather: no significant weather observed at this time

METAR text: MDSD 240400Z 06004KT 9999 FEW016CB SCT018 26/24 Q1016 CB/N
Conditions at: MDSD (CAUCEDO/DE LAS , DO) observed 0400 UTC 24 August 2019
Temperature: 26.0°C (79°F)
Dewpoint: 24.0°C (75°F) [RH = 89%]
Pressure (altimeter): 30.00 inches Hg (1016.0 mb)
Winds: from the ENE (60 degrees) at 5 MPH (4 knots; 2.1 m/s)
Visibility: 6 or more miles (10+ km)
Ceiling: at least 12,000 feet AGL
Clouds: few clouds at 1600 feet AGL
scattered clouds at 1800 feet AGL
Weather: no significant weather observed at this time

METAR text: MDSD 240300Z 05004KT 8000 -RA FEW016CB SCT018 26/24 Q1016 CB/N
Conditions at: MDSD (CAUCEDO/DE LAS , DO) observed 0300 UTC 24 August 2019
Temperature: 26.0°C (79°F)
Dewpoint: 24.0°C (75°F) [RH = 89%]
Pressure (altimeter): 30.00 inches Hg (1016.0 mb)
Winds: from the NE (50 degrees) at 5 MPH (4 knots; 2.1 m/s)
Visibility: 5 miles ( 8 km)
Ceiling: at least 12,000 feet AGL
Clouds: few clouds at 1600 feet AGL
scattered clouds at 1800 feet AGL
Weather: -RA  (light rain)

METAR text: MDSD 240200Z 10007KT 9999 FEW018CB FEW020 27/24 Q1016 CB/N
Conditions at: MDSD (CAUCEDO/DE LAS , DO) observed 0200 UTC 24 August 2019
Temperature: 27.0°C (81°F)
Dewpoint: 24.0°C (75°F) [RH = 84%]
Pressure (altimeter): 30.00 inches Hg (1016.0 mb)
Winds: from the E (100 degrees) at 8 MPH (7 knots; 3.6 m/s)
Visibility: 6 or more miles (10+ km)
Ceiling: at least 12,000 feet AGL
Clouds: few clouds at 1800 feet AGL
few clouds at 2000 feet AGL
Weather: no significant weather observed at this time

METAR text: MDSD 240100Z 12007KT 9999 FEW018CB FEW020 28/24 Q1015 CB/N
Conditions at: MDSD (CAUCEDO/DE LAS , DO) observed 0100 UTC 24 August 2019
Temperature: 28.0°C (82°F)
Dewpoint: 24.0°C (75°F) [RH = 79%]
Pressure (altimeter): 29.97 inches Hg (1015.0 mb)
Winds: from the ESE (120 degrees) at 8 MPH (7 knots; 3.6 m/s)
Visibility: 6 or more miles (10+ km)
Ceiling: at least 12,000 feet AGL
Clouds: few clouds at 1800 feet AGL
few clouds at 2000 feet AGL
Weather: no significant weather observed at this time

METAR text: MDSD 240000Z 11007KT 9999 FEW018CB FEW020 29/24 Q1014 CB/N/NE
Conditions at: MDSD (CAUCEDO/DE LAS , DO) observed 0000 UTC 24 August 2019
Temperature: 29.0°C (84°F)
Dewpoint: 24.0°C (75°F) [RH = 74%]
Pressure (altimeter): 29.94 inches Hg (1014.0 mb)
Winds: from the ESE (110 degrees) at 8 MPH (7 knots; 3.6 m/s)
Visibility: 6 or more miles (10+ km)
Ceiling: at least 12,000 feet AGL
Clouds: few clouds at 1800 feet AGL
few clouds at 2000 feet AGL
Weather: no significant weather observed at this time

METAR text: MDSD 232300Z 12007KT 9999 FEW020CB FEW022 29/24 Q1014 CB/N/NE
Conditions at: MDSD (CAUCEDO/DE LAS , DO) observed 2300 UTC 23 August 2019
Temperature: 29.0°C (84°F)
Dewpoint: 24.0°C (75°F) [RH = 74%]
Pressure (altimeter): 29.94 inches Hg (1014.0 mb)
Winds: from the ESE (120 degrees) at 8 MPH (7 knots; 3.6 m/s)
Visibility: 6 or more miles (10+ km)
Ceiling: at least 12,000 feet AGL
Clouds: few clouds at 2000 feet AGL
few clouds at 2200 feet AGL
Weather: no significant weather observed at this time

METAR text: MDSD 232200Z 13007KT 9999 FEW018CB FEW020 30/24 Q1014 CB/N/NE
Conditions at: MDSD (CAUCEDO/DE LAS , DO) observed 2200 UTC 23 August 2019
Temperature: 30.0°C (86°F)
Dewpoint: 24.0°C (75°F) [RH = 70%]
Pressure (altimeter): 29.94 inches Hg (1014.0 mb)
Winds: from the SE (130 degrees) at 8 MPH (7 knots; 3.6 m/s)
Visibility: 6 or more miles (10+ km)
Ceiling: at least 12,000 feet AGL
Clouds: few clouds at 1800 feet AGL
few clouds at 2000 feet AGL
Weather: no significant weather observed at this time

METAR text: MDSD 232100Z 14009KT 9999 FEW020CB FEW022 31/24 Q1014 CB/NE/E
Conditions at: MDSD (CAUCEDO/DE LAS , DO) observed 2100 UTC 23 August 2019
Temperature: 31.0°C (88°F)
Dewpoint: 24.0°C (75°F) [RH = 66%]
Pressure (altimeter): 29.94 inches Hg (1014.0 mb)
Winds: from the SE (140 degrees) at 10 MPH (9 knots; 4.6 m/s)
Visibility: 6 or more miles (10+ km)
Ceiling: at least 12,000 feet AGL
Clouds: few clouds at 2000 feet AGL
few clouds at 2200 feet AGL
Weather: no significant weather observed at this time

METAR text: MDSD 232000Z 14009KT 9999 FEW020CB FEW022 31/25 Q1013 CB/NE/NW
Conditions at: MDSD (CAUCEDO/DE LAS , DO) observed 2000 UTC 23 August 2019
Temperature: 31.0°C (88°F)
Dewpoint: 25.0°C (77°F) [RH = 71%]
Pressure (altimeter): 29.91 inches Hg (1013.0 mb)
Winds: from the SE (140 degrees) at 10 MPH (9 knots; 4.6 m/s)
Visibility: 6 or more miles (10+ km)
Ceiling: at least 12,000 feet AGL
Clouds: few clouds at 2000 feet AGL
few clouds at 2200 feet AGL
Weather: no significant weather observed at this time

METAR text: MDSD 231900Z 14010KT 9999 FEW020CB SCT022 31/24 Q1014 CB/N/SW
Conditions at: MDSD (CAUCEDO/DE LAS , DO) observed 1900 UTC 23 August 2019
Temperature: 31.0°C (88°F)
Dewpoint: 24.0°C (75°F) [RH = 66%]
Pressure (altimeter): 29.94 inches Hg (1014.0 mb)
Winds: from the SE (140 degrees) at 12 MPH (10 knots; 5.1 m/s)
Visibility: 6 or more miles (10+ km)
Ceiling: at least 12,000 feet AGL
Clouds: few clouds at 2000 feet AGL
scattered clouds at 2200 feet AGL
Weather: no significant weather observed at this time

METAR text: MDSD 231800Z 13012KT 9999 FEW020CB SCT022 31/25 Q1014 CB/SW
Conditions at: MDSD (CAUCEDO/DE LAS , DO) observed 1800 UTC 23 August 2019
Temperature: 31.0°C (88°F)
Dewpoint: 25.0°C (77°F) [RH = 71%]
Pressure (altimeter): 29.94 inches Hg (1014.0 mb)
Winds: from the SE (130 degrees) at 14 MPH (12 knots; 6.2 m/s)
Visibility: 6 or more miles (10+ km)
Ceiling: at least 12,000 feet AGL
Clouds: few clouds at 2000 feet AGL
scattered clouds at 2200 feet AGL
Weather: no significant weather observed at this time

METAR text: MDSD 231700Z 13005KT 9999 FEW018CB SCT020 31/25 Q1015 CB/SW
Conditions at: MDSD (CAUCEDO/DE LAS , DO) observed 1700 UTC 23 August 2019
Temperature: 31.0°C (88°F)
Dewpoint: 25.0°C (77°F) [RH = 71%]
Pressure (altimeter): 29.97 inches Hg (1015.0 mb)
Winds: from the SE (130 degrees) at 6 MPH (5 knots; 2.6 m/s)
Visibility: 6 or more miles (10+ km)
Ceiling: at least 12,000 feet AGL
Clouds: few clouds at 1800 feet AGL
scattered clouds at 2000 feet AGL
Weather: no significant weather observed at this time

METAR text: MDSD 231600Z 14009KT 8000 -RA FEW014CB BKN016 27/26 Q1016 CB/W
Conditions at: MDSD (CAUCEDO/DE LAS , DO) observed 1600 UTC 23 August 2019
Temperature: 27.0°C (81°F)
Dewpoint: 26.0°C (79°F) [RH = 94%]
Pressure (altimeter): 30.00 inches Hg (1016.0 mb)
Winds: from the SE (140 degrees) at 10 MPH (9 knots; 4.6 m/s)
Visibility: 5 miles ( 8 km)
Ceiling: 1600 feet AGL
Clouds: few clouds at 1400 feet AGL
broken clouds at 1600 feet AGL
Weather: -RA  (light rain)

METAR text: MDSD 231500Z 14010KT 8000 -RA FEW014CB BKN016 29/26 Q1016 CB/NE/W
Conditions at: MDSD (CAUCEDO/DE LAS , DO) observed 1500 UTC 23 August 2019
Temperature: 29.0°C (84°F)
Dewpoint: 26.0°C (79°F) [RH = 84%]
Pressure (altimeter): 30.00 inches Hg (1016.0 mb)
Winds: from the SE (140 degrees) at 12 MPH (10 knots; 5.1 m/s)
Visibility: 5 miles ( 8 km)
Ceiling: 1600 feet AGL
Clouds: few clouds at 1400 feet AGL
broken clouds at 1600 feet AGL
Weather: -RA  (light rain)

METAR text: MDSD 231400Z 00000KT 9999 FEW014CB BKN016 26/25 Q1017 RERA CB/OVER STATION
Conditions at: MDSD (CAUCEDO/DE LAS , DO) observed 1400 UTC 23 August 2019
Temperature: 26.0°C (79°F)
Dewpoint: 25.0°C (77°F) [RH = 94%]
Pressure (altimeter): 30.03 inches Hg (1017.0 mb)
Winds: calm
Visibility: 6 or more miles (10+ km)
Ceiling: 1600 feet AGL
Clouds: few clouds at 1400 feet AGL
broken clouds at 1600 feet AGL
Weather: no significant weather observed at this time

METAR text: MDSD 231334Z 17004KT 8000 -RA FEW012CB OVC014 26/26 Q1017 CB/SE/S
Conditions at: MDSD (CAUCEDO/DE LAS , DO) observed 1334 UTC 23 August 2019
Temperature: 26.0°C (79°F)
Dewpoint: 26.0°C (79°F) [RH = 100%]
Pressure (altimeter): 30.03 inches Hg (1017.0 mb)
Winds: from the S (170 degrees) at 5 MPH (4 knots; 2.1 m/s)
Visibility: 5 miles ( 8 km)
Ceiling: 1400 feet AGL
Clouds: few clouds at 1200 feet AGL
overcast cloud deck at 1400 feet AGL
Weather: -RA  (light rain)

METAR text: MDSD 231322Z 14004KT 0800 +RA FEW012CB OVC014 26/26 Q1016 CB/SE/S
Conditions at: MDSD (CAUCEDO/DE LAS , DO) observed 1322 UTC 23 August 2019
Temperature: 26.0°C (79°F)
Dewpoint: 26.0°C (79°F) [RH = 100%]
Pressure (altimeter): 30.00 inches Hg (1016.0 mb)
Winds: from the SE (140 degrees) at 5 MPH (4 knots; 2.1 m/s)
Visibility: 0.50 miles (0.80 km)
Ceiling: 1400 feet AGL
Clouds: few clouds at 1200 feet AGL
overcast cloud deck at 1400 feet AGL
Weather: +RA  (heavy rain)

METAR text: MDSD 231312Z 14004KT 5000 RA FEW012CB BKN014 26/25 Q1016 RERA CB/SE/S
Conditions at: MDSD (CAUCEDO/DE LAS , DO) observed 1312 UTC 23 August 2019
Temperature: 26.0°C (79°F)
Dewpoint: 25.0°C (77°F) [RH = 94%]
Pressure (altimeter): 30.00 inches Hg (1016.0 mb)
Winds: from the SE (140 degrees) at 5 MPH (4 knots; 2.1 m/s)
Visibility: 3 miles ( 5 km)
Ceiling: 1400 feet AGL
Clouds: few clouds at 1200 feet AGL
broken clouds at 1400 feet AGL
Weather: RA  (moderate rain)

METAR text: MDSD 231300Z 10006KT 8000 VCSH FEW014CB BKN016 26/24 Q1016 RERA CB/SE/S
Conditions at: MDSD (CAUCEDO/DE LAS , DO) observed 1300 UTC 23 August 2019
Temperature: 26.0°C (79°F)
Dewpoint: 24.0°C (75°F) [RH = 89%]
Pressure (altimeter): 30.00 inches Hg (1016.0 mb)
Winds: from the E (100 degrees) at 7 MPH (6 knots; 3.1 m/s)
Visibility: 5 miles ( 8 km)
Ceiling: 1600 feet AGL
Clouds: few clouds at 1400 feet AGL
broken clouds at 1600 feet AGL
Weather: VCSH  (showers in vicinity)

METAR text: MDSD 231200Z 10004KT 8000 -RA FEW016CB SCT016 SCT070 25/24 Q1016 CB/SE/S
Conditions at: MDSD (CAUCEDO/DE LAS , DO) observed 1200 UTC 23 August 2019
Temperature: 25.0°C (77°F)
Dewpoint: 24.0°C (75°F) [RH = 94%]
Pressure (altimeter): 30.00 inches Hg (1016.0 mb)
Winds: from the E (100 degrees) at 5 MPH (4 knots; 2.1 m/s)
Visibility: 5 miles ( 8 km)
Ceiling: at least 12,000 feet AGL
Clouds: few clouds at 1600 feet AGL
scattered clouds at 1600 feet AGL
scattered clouds at 7000 feet AGL
Weather: -RA  (light rain)

METAR text: MDSD 231100Z 10004KT 8000 -RA FEW016CB SCT016 SCT070 23/23 Q1015 CB/SE/S
Conditions at: MDSD (CAUCEDO/DE LAS , DO) observed 1100 UTC 23 August 2019
Temperature: 23.0°C (73°F)
Dewpoint: 23.0°C (73°F) [RH = 100%]
Pressure (altimeter): 29.97 inches Hg (1015.0 mb)
Winds: from the E (100 degrees) at 5 MPH (4 knots; 2.1 m/s)
Visibility: 5 miles ( 8 km)
Ceiling: at least 12,000 feet AGL
Clouds: few clouds at 1600 feet AGL
scattered clouds at 1600 feet AGL
scattered clouds at 7000 feet AGL
Weather: -RA  (light rain)

METAR text: MDSD 231000Z 07004KT 9999 FEW016CB SCT016 24/23 Q1015 CB/S
Conditions at: MDSD (CAUCEDO/DE LAS , DO) observed 1000 UTC 23 August 2019
Temperature: 24.0°C (75°F)
Dewpoint: 23.0°C (73°F) [RH = 94%]
Pressure (altimeter): 29.97 inches Hg (1015.0 mb)
Winds: from the ENE (70 degrees) at 5 MPH (4 knots; 2.1 m/s)
Visibility: 6 or more miles (10+ km)
Ceiling: at least 12,000 feet AGL
Clouds: few clouds at 1600 feet AGL
scattered clouds at 1600 feet AGL
Weather: no significant weather observed at this time

METAR text: MDSD 230900Z 06006KT 9999 FEW016CB SCT016 24/23 Q1015 CB/S
Conditions at: MDSD (CAUCEDO/DE LAS , DO) observed 0900 UTC 23 August 2019
Temperature: 24.0°C (75°F)
Dewpoint: 23.0°C (73°F) [RH = 94%]
Pressure (altimeter): 29.97 inches Hg (1015.0 mb)
Winds: from the ENE (60 degrees) at 7 MPH (6 knots; 3.1 m/s)
Visibility: 6 or more miles (10+ km)
Ceiling: at least 12,000 feet AGL
Clouds: few clouds at 1600 feet AGL
scattered clouds at 1600 feet AGL
Weather: no significant weather observed at this time

METAR text: MDSD 230800Z 07005KT 9999 FEW016CB SCT016 24/23 Q1014 RERA CB/S
Conditions at: MDSD (CAUCEDO/DE LAS , DO) observed 0800 UTC 23 August 2019
Temperature: 24.0°C (75°F)
Dewpoint: 23.0°C (73°F) [RH = 94%]
Pressure (altimeter): 29.94 inches Hg (1014.0 mb)
Winds: from the ENE (70 degrees) at 6 MPH (5 knots; 2.6 m/s)
Visibility: 6 or more miles (10+ km)
Ceiling: at least 12,000 feet AGL
Clouds: few clouds at 1600 feet AGL
scattered clouds at 1600 feet AGL
Weather: no significant weather observed at this time

METAR text: MDSD 230700Z 13004KT 8000 -RA FEW016CB SCT016 25/23 Q1015 CB/NW/N
Conditions at: MDSD (CAUCEDO/DE LAS , DO) observed 0700 UTC 23 August 2019
Temperature: 25.0°C (77°F)
Dewpoint: 23.0°C (73°F) [RH = 89%]
Pressure (altimeter): 29.97 inches Hg (1015.0 mb)
Winds: from the SE (130 degrees) at 5 MPH (4 knots; 2.1 m/s)
Visibility: 5 miles ( 8 km)
Ceiling: at least 12,000 feet AGL
Clouds: few clouds at 1600 feet AGL
scattered clouds at 1600 feet AGL
Weather: -RA  (light rain)

METAR text: MDSD 230600Z 06004KT 9999 FEW016CB FEW018 25/24 Q1015 CB/NW/N
Conditions at: MDSD (CAUCEDO/DE LAS , DO) observed 0600 UTC 23 August 2019
Temperature: 25.0°C (77°F)
Dewpoint: 24.0°C (75°F) [RH = 94%]
Pressure (altimeter): 29.97 inches Hg (1015.0 mb)
Winds: from the ENE (60 degrees) at 5 MPH (4 knots; 2.1 m/s)
Visibility: 6 or more miles (10+ km)
Ceiling: at least 12,000 feet AGL
Clouds: few clouds at 1600 feet AGL
few clouds at 1800 feet AGL
Weather: no significant weather observed at this time

METAR text: MDSD 230500Z 05004KT 9999 SCT016 25/24 Q1015
Conditions at: MDSD (CAUCEDO/DE LAS , DO) observed 0500 UTC 23 August 2019
Temperature: 25.0°C (77°F)
Dewpoint: 24.0°C (75°F) [RH = 94%]
Pressure (altimeter): 29.97 inches Hg (1015.0 mb)
Winds: from the NE (50 degrees) at 5 MPH (4 knots; 2.1 m/s)
Visibility: 6 or more miles (10+ km)
Ceiling: at least 12,000 feet AGL
Clouds: scattered clouds at 1600 feet AGL
Weather: no significant weather observed at this time

METAR text: MDSD 230400Z 06004KT 9999 SCT016 26/24 Q1015
Conditions at: MDSD (CAUCEDO/DE LAS , DO) observed 0400 UTC 23 August 2019
Temperature: 26.0°C (79°F)
Dewpoint: 24.0°C (75°F) [RH = 89%]
Pressure (altimeter): 29.97 inches Hg (1015.0 mb)
Winds: from the ENE (60 degrees) at 5 MPH (4 knots; 2.1 m/s)
Visibility: 6 or more miles (10+ km)
Ceiling: at least 12,000 feet AGL
Clouds: scattered clouds at 1600 feet AGL
Weather: no significant weather observed at this time

METAR text: MDSD 230300Z 09004KT 9999 SCT018 26/25 Q1016
Conditions at: MDSD (CAUCEDO/DE LAS , DO) observed 0300 UTC 23 August 2019
Temperature: 26.0°C (79°F)
Dewpoint: 25.0°C (77°F) [RH = 94%]
Pressure (altimeter): 30.00 inches Hg (1016.0 mb)
Winds: from the E (90 degrees) at 5 MPH (4 knots; 2.1 m/s)
Visibility: 6 or more miles (10+ km)
Ceiling: at least 12,000 feet AGL
Clouds: scattered clouds at 1800 feet AGL
Weather: no significant weather observed at this time

Forecast for: MDSD (CAUCEDO/DE LAS , DO)
Text: TAF MDSD 241000Z 2412/2512 04005KT 9999 FEW016CB SCT018
Forecast period: 1200 to 1500 UTC 24 August 2019
Forecast type: FROM: standard forecast or significant change
Winds: from the NE (40 degrees) at 6 MPH (5 knots; 2.6 m/s)
Visibility: 6 or more miles 10+ km)
Ceiling: at least 12,000 feet AGL
Clouds: few clouds at 1600 feet AGL
scattered clouds at 1800 feet AGL
Weather: no significant weather forecast for this period
Text: BECMG 2415/2417 12010KT
Forecast period: 1500 UTC 24 August 2019 to 1200 UTC 25 August 2019
Forecast type: BECOMING: Conditions expected to become as follows by 1700 UTC 24 August 2019
Winds: from the ESE (120 degrees) at 12 MPH (10 knots; 5.1 m/s)
Visibility: 6 or more miles 10+ km)
Ceiling: at least 12,000 feet AGL
Clouds: few clouds at 1600 feet AGL
scattered clouds at 1800 feet AGL
Weather: no significant weather forecast for this period
Text: TEMPO 2418/2500 7000 -TSRA FEW014CB BKN016 SCT016
Forecast period: 1800 UTC 24 August 2019 to 0000 UTC 25 August 2019
Forecast type: TEMPORARY: The following changes expected for less than half the time period
Visibility: 4 miles (7 km)
Ceiling: 1600 feet AGL
Clouds: few clouds at 1400 feet AGL
broken clouds at 1600 feet AGL
scattered clouds at 1600 feet AGL
Weather: -TSRA  (light rain associated with thunderstorm(s))